Airfield :
LOGIN :

Register | Disclaimer

   EN    FR    IT 

 










Legend :    VFR   Marginal VFR   IFR   Intensive IFR   Very Intensive IFR
Visi :
Ceiling :
>= 8 km
>= 3000ft
5 to 8 km
1000 to 3000 ft
1500m to 5 km
500 to 1000 ft
800 to 1500m
200 to 500 ft
< 800m
< 200 ft
Symbols :   Thunderstorms  Fog  Heavy snow  Heavy precipitations  Wind > 20 kt
SIGMETs :     Misc.  Thunderstorms  Icing  Turbulence  Mountain Waves  Volcanic Ashes






- Airport Elevation : 2945 ft
- IATA code : RGS


LEBG - Burgos

CURRENT METAR :
  • 200730Z 06003KT 030V110 9999 BKN030 01/00 Q1030

EXPIRED METARs :
  • 200700Z 06003KT 020V100 9999 BKN035 00/M00 Q1030
  • 200630Z AUTO 05003KT 020V080 8000 BKN038 OVC048 00/M01 Q1030
  • 200600Z AUTO VRB02KT 8000 SCT032 BKN039 OVC046 00/M00 Q1029
  • 200530Z AUTO 03005KT 8000 FEW033 OVC046 M00/M01 Q1030
  • 200500Z AUTO 04004KT 7000 FEW042 BKN050 M01/M01 Q1030

TAF TAF LEBG
Valid from the 20 at 03:00 until the 21 at 03:00 UTC


200200Z 2003/2103 04008KT 9999 FEW040 TX06/2015Z TNM04/2006Z
PROB40
TEMPO 2003/2010 3000 BR BKN005
PROB30
TEMPO 2003/2010 0400 FG VV002
TEMPO 2012/2103 BKN009
PROB30
TEMPO 2018/2103 2000 BR BKN006
PROB30
TEMPO 2021/2103 0200 FG VV001



MET'MAP, your aeronautical weather chart ! - Copyright ORBIFLY December 2007 - Disclaimer

ORBIFLY MET'MAP TEAM :

Programming & Development : Alexandra Zaïnal
Concept & original design : Baudouin d'Aumeries
Assistance for programming : Marc-Olivier Méhu
Technical & hardware support : Manuel Goepfert

Contact : metmap@orbifly.com




SOURCES & CREDITS :

   NOAA